Time;durP1;ratioP1;P1;durP2;ratioP2;P2;SDS_P1;SDS_P2;PMS_P1;PMS_P2;Temp;Humidity;BMP_temperature;BMP_pressure;BME280_temperature;BME280_humidity;BME280_pressure;Samples;Min_cycle;Max_cycle;Signal;HPM_P1;HPM_P2
2021/09/06 00:02:04;;;;;;;3.65;3.20;;;22.90;55.20;;;;;;4928133;29;20556;-67
2021/09/06 00:04:34;;;;;;;3.50;3.15;;;23.00;55.10;;;;;;4928426;29;20772;-72
2021/09/06 00:07:00;;;;;;;3.97;3.00;;;22.90;55.00;;;;;;4927852;29;20399;-71
2021/09/06 00:09:26;;;;;;;3.50;3.13;;;22.90;55.10;;;;;;4928032;29;20776;-69
2021/09/06 00:11:52;;;;;;;4.20;3.40;;;22.90;55.00;;;;;;4927879;29;20967;-71
2021/09/06 00:14:18;;;;;;;3.83;3.08;;;22.90;54.90;;;;;;4927279;29;20438;-69
2021/09/06 00:16:44;;;;;;;3.88;3.47;;;22.90;54.80;;;;;;4927968;29;20498;-68
2021/09/06 00:19:10;;;;;;;3.73;3.33;;;22.90;54.60;;;;;;4927980;29;20506;-73
2021/09/06 00:21:37;;;;;;;3.70;3.25;;;22.90;54.80;;;;;;4927140;29;20489;-69
2021/09/06 00:24:03;;;;;;;4.00;3.40;;;22.90;54.80;;;;;;4927588;29;20400;-74
2021/09/06 00:26:28;;;;;;;4.03;3.20;;;22.90;54.90;;;;;;4927626;29;20498;-68
2021/09/06 00:28:55;;;;;;;3.50;3.17;;;22.90;54.80;;;;;;4942492;29;20892;-73
2021/09/06 00:31:21;;;;;;;4.20;3.28;;;22.90;54.90;;;;;;4927586;29;20403;-73
2021/09/06 00:33:46;;;;;;;3.53;3.13;;;22.80;54.80;;;;;;4927602;29;21480;-73
2021/09/06 00:36:13;;;;;;;3.72;3.20;;;22.90;54.80;;;;;;4926783;29;20726;-68
2021/09/06 00:38:38;;;;;;;3.47;3.00;;;22.80;54.60;;;;;;4927677;29;21365;-69
2021/09/06 00:41:04;;;;;;;4.07;3.40;;;22.80;54.80;;;;;;4927230;29;20406;-74
2021/09/06 00:43:30;;;;;;;4.07;3.38;;;22.80;54.60;;;;;;4927660;29;20415;-72
2021/09/06 00:45:56;;;;;;;4.27;3.27;;;22.80;54.50;;;;;;4927503;29;20418;-73
2021/09/06 00:48:24;;;;;;;3.77;3.23;;;22.80;54.70;;;;;;4927205;29;20461;-73
2021/09/06 00:50:50;;;;;;;4.07;3.00;;;22.80;54.80;;;;;;4926265;29;20403;-70
2021/09/06 00:53:17;;;;;;;3.43;3.00;;;22.80;54.60;;;;;;4927423;29;20438;-74
2021/09/06 00:55:43;;;;;;;3.38;2.92;;;22.80;54.50;;;;;;4927160;29;20947;-73
2021/09/06 00:58:09;;;;;;;3.78;3.20;;;22.80;54.60;;;;;;4927143;29;20403;-73
2021/09/06 01:00:35;;;;;;;3.55;3.20;;;22.80;54.70;;;;;;4927028;29;20398;-71
2021/09/06 01:03:01;;;;;;;3.65;3.13;;;22.80;54.60;;;;;;4927173;29;20412;-65
2021/09/06 01:05:27;;;;;;;3.77;3.37;;;22.80;54.60;;;;;;4927155;29;20430;-73
2021/09/06 01:07:53;;;;;;;4.03;3.40;;;22.80;54.50;;;;;;4926939;29;20771;-70
2021/09/06 01:10:19;;;;;;;3.58;3.20;;;22.80;54.60;;;;;;4926766;29;20392;-73
2021/09/06 01:12:45;;;;;;;3.42;3.10;;;22.80;54.50;;;;;;4926938;29;20439;-73
2021/09/06 01:15:12;;;;;;;3.83;3.10;;;22.80;54.60;;;;;;4927129;29;20490;-73
2021/09/06 01:17:38;;;;;;;3.83;3.20;;;22.80;54.50;;;;;;4926826;29;20461;-70
2021/09/06 01:20:05;;;;;;;3.42;3.08;;;22.70;54.40;;;;;;4926877;29;20797;-73
2021/09/06 01:22:31;;;;;;;3.60;3.10;;;22.80;54.40;;;;;;4917501;29;20768;-72
2021/09/06 01:24:57;;;;;;;3.58;3.17;;;22.70;54.30;;;;;;4926722;29;20400;-69
2021/09/06 01:27:22;;;;;;;3.53;3.10;;;22.70;54.40;;;;;;4926378;29;20812;-70
2021/09/06 01:29:48;;;;;;;3.78;3.20;;;22.70;54.40;;;;;;4926295;29;20400;-72
2021/09/06 01:32:14;;;;;;;3.23;2.90;;;22.70;54.40;;;;;;4926261;29;20490;-72
2021/09/06 01:34:39;;;;;;;3.92;3.22;;;22.70;54.40;;;;;;4926576;29;20989;-73
2021/09/06 01:37:05;;;;;;;3.70;3.30;;;22.70;54.50;;;;;;4926433;29;20410;-71
2021/09/06 01:39:30;;;;;;;3.40;3.00;;;22.70;54.10;;;;;;4926615;29;20975;-74
2021/09/06 01:41:58;;;;;;;3.50;3.05;;;22.70;54.20;;;;;;4926408;29;20821;-68
2021/09/06 01:44:24;;;;;;;3.63;3.23;;;22.70;54.10;;;;;;4926302;29;20987;-67
2021/09/06 01:46:50;;;;;;;3.70;3.13;;;22.70;54.80;;;;;;4926302;29;20400;-72
2021/09/06 01:49:15;;;;;;;3.70;3.30;;;22.70;54.10;;;;;;4926477;29;20459;-73
2021/09/06 01:51:41;;;;;;;3.63;3.22;;;22.70;54.20;;;;;;4925453;29;20403;-72
2021/09/06 01:54:07;;;;;;;3.78;3.38;;;22.60;54.10;;;;;;4925890;29;20453;-72
2021/09/06 01:56:32;;;;;;;3.80;3.00;;;22.60;54.80;;;;;;4926018;29;20415;-72
2021/09/06 01:58:58;;;;;;;3.50;3.15;;;22.70;54.40;;;;;;4925898;29;20411;-69
2021/09/06 02:01:24;;;;;;;3.60;3.13;;;22.70;53.80;;;;;;4926216;29;20407;-73
2021/09/06 02:03:50;;;;;;;3.85;3.10;;;22.60;54.00;;;;;;4925958;29;20964;-73
2021/09/06 02:06:16;;;;;;;3.67;3.07;;;22.60;53.90;;;;;;4925940;29;20741;-69
2021/09/06 02:08:42;;;;;;;3.13;2.80;;;22.60;54.10;;;;;;4926014;29;20395;-72
2021/09/06 02:11:08;;;;;;;3.30;2.88;;;22.60;54.30;;;;;;4926269;29;20760;-73
2021/09/06 02:13:34;;;;;;;4.15;3.20;;;22.60;54.00;;;;;;4925961;29;20431;-73
2021/09/06 02:15:59;;;;;;;3.97;3.25;;;22.60;53.90;;;;;;4925938;29;21650;-72
2021/09/06 02:18:25;;;;;;;3.50;3.00;;;22.60;53.90;;;;;;4925423;29;20928;-73
2021/09/06 02:20:51;;;;;;;3.65;3.17;;;22.60;53.80;;;;;;4925366;29;20487;-71
2021/09/06 02:23:16;;;;;;;3.77;3.07;;;22.60;54.10;;;;;;4925763;29;20900;-73
2021/09/06 02:25:42;;;;;;;3.95;3.22;;;22.60;53.90;;;;;;4925768;29;20435;-73
2021/09/06 02:28:08;;;;;;;3.50;3.20;;;22.60;53.80;;;;;;4925781;29;20422;-71
2021/09/06 02:30:34;;;;;;;3.67;3.03;;;22.60;53.80;;;;;;4925281;29;20483;-70
2021/09/06 02:33:00;;;;;;;3.75;3.00;;;22.60;53.80;;;;;;4925832;29;20419;-72
2021/09/06 02:35:26;;;;;;;4.07;2.90;;;22.60;53.80;;;;;;4925325;29;20471;-68
2021/09/06 02:37:51;;;;;;;3.73;3.20;;;22.60;53.80;;;;;;4924832;29;20392;-69
2021/09/06 02:40:18;;;;;;;3.58;3.10;;;22.60;53.70;;;;;;4924869;29;20494;-72
2021/09/06 02:42:44;;;;;;;3.90;2.90;;;22.50;53.80;;;;;;4925312;29;20458;-73
2021/09/06 02:45:11;;;;;;;3.75;2.83;;;22.50;53.70;;;;;;4925597;29;20395;-72
2021/09/06 02:47:37;;;;;;;3.40;2.83;;;22.50;53.60;;;;;;4925578;29;20443;-69
2021/09/06 02:50:04;;;;;;;3.15;2.85;;;22.60;53.70;;;;;;4925355;29;20399;-70
2021/09/06 02:52:32;;;;;;;4.05;3.17;;;22.60;53.70;;;;;;4924943;29;21323;-73
2021/09/06 02:54:58;;;;;;;3.95;3.10;;;22.60;53.70;;;;;;4925787;29;20412;-73
2021/09/06 02:57:24;;;;;;;3.67;2.97;;;22.50;53.70;;;;;;4925481;28;20965;-65
2021/09/06 02:59:50;;;;;;;3.77;3.10;;;22.50;53.70;;;;;;4925668;29;20987;-73
2021/09/06 03:02:16;;;;;;;3.35;3.00;;;22.50;53.70;;;;;;4924808;29;20387;-73
2021/09/06 03:04:42;;;;;;;3.58;3.22;;;22.50;53.80;;;;;;4925477;29;20396;-73
2021/09/06 03:07:07;;;;;;;3.60;3.10;;;22.50;53.70;;;;;;4924702;29;20392;-70
2021/09/06 03:09:33;;;;;;;3.60;3.05;;;22.50;54.10;;;;;;4925189;29;20396;-72
2021/09/06 03:11:59;;;;;;;3.80;3.10;;;22.50;53.90;;;;;;4924943;29;20395;-72
2021/09/06 03:14:25;;;;;;;3.33;2.93;;;22.60;54.50;;;;;;4924546;29;20518;-71
2021/09/06 03:16:51;;;;;;;3.50;2.70;;;22.50;54.40;;;;;;4926252;29;20931;-73
2021/09/06 03:19:18;;;;;;;4.68;3.10;;;22.50;55.10;;;;;;4924874;29;20408;-70
2021/09/06 03:21:43;;;;;;;4.30;3.25;;;22.50;55.60;;;;;;4925306;29;20742;-73
2021/09/06 03:24:09;;;;;;;7.07;3.13;;;22.60;55.70;;;;;;4925110;29;20415;-69
2021/09/06 03:26:35;;;;;;;5.20;3.03;;;22.60;55.60;;;;;;4924532;29;20492;-72
2021/09/06 03:29:01;;;;;;;5.07;3.17;;;22.70;55.30;;;;;;4925158;29;20746;-68
2021/09/06 03:31:27;;;;;;;4.13;3.10;;;22.70;55.20;;;;;;4924948;29;20438;-71
2021/09/06 03:33:53;;;;;;;4.80;2.97;;;22.70;55.10;;;;;;4925269;29;20526;-73
2021/09/06 03:36:20;;;;;;;4.47;3.13;;;22.70;55.20;;;;;;4926129;29;20431;-71
2021/09/06 03:38:46;;;;;;;5.10;2.70;;;22.70;55.20;;;;;;4925387;29;20403;-72
2021/09/06 03:41:11;;;;;;;3.95;3.13;;;22.70;55.70;;;;;;4925110;29;20431;-72
2021/09/06 03:43:37;;;;;;;5.88;2.92;;;22.70;55.10;;;;;;4924371;29;20458;-70
2021/09/06 03:46:03;;;;;;;4.23;2.80;;;22.80;55.10;;;;;;4924364;29;20496;-72
2021/09/06 03:48:29;;;;;;;4.32;3.10;;;22.80;55.00;;;;;;4909196;29;20426;-72
2021/09/06 03:50:54;;;;;;;6.80;3.23;;;22.80;55.20;;;;;;4927589;29;20395;-72
2021/09/06 03:53:20;;;;;;;4.22;3.05;;;22.80;55.20;;;;;;4928014;29;20435;-66
2021/09/06 03:55:46;;;;;;;4.80;2.93;;;22.80;55.30;;;;;;4927938;29;20417;-73
2021/09/06 03:58:11;;;;;;;5.97;3.05;;;22.80;55.30;;;;;;4927253;29;20526;-72
2021/09/06 04:00:37;;;;;;;4.20;2.87;;;22.80;55.20;;;;;;4927726;29;20466;-72
2021/09/06 04:03:02;;;;;;;4.43;3.00;;;22.70;54.50;;;;;;4926433;29;20769;-73
2021/09/06 04:05:28;;;;;;;3.90;2.80;;;22.70;54.50;;;;;;4926908;29;20813;-71
2021/09/06 04:07:54;;;;;;;6.60;3.00;;;22.70;54.50;;;;;;4928038;29;20395;-68
2021/09/06 04:10:20;;;;;;;3.95;2.90;;;22.70;54.70;;;;;;4927754;29;20427;-72
2021/09/06 04:12:45;;;;;;;4.68;2.95;;;22.60;54.40;;;;;;4925801;29;20482;-68
2021/09/06 04:15:12;;;;;;;7.18;2.75;;;22.60;53.20;;;;;;4928243;29;20400;-67
2021/09/06 04:17:38;;;;;;;5.65;3.00;;;22.60;53.90;;;;;;4927834;29;20471;-73
2021/09/06 04:20:05;;;;;;;5.93;2.88;;;22.60;54.10;;;;;;4927854;29;20413;-73
2021/09/06 04:22:31;;;;;;;5.85;3.00;;;22.60;54.10;;;;;;4927545;29;20975;-71
2021/09/06 04:24:58;;;;;;;4.55;3.10;;;22.60;54.20;;;;;;4927828;29;20455;-68
2021/09/06 04:27:24;;;;;;;4.00;2.80;;;22.60;54.00;;;;;;4927701;29;20519;-67
2021/09/06 04:29:50;;;;;;;5.78;2.92;;;22.60;54.10;;;;;;4927935;29;20884;-73
2021/09/06 04:32:15;;;;;;;4.17;2.70;;;22.60;54.00;;;;;;4927838;29;20399;-72
2021/09/06 04:34:41;;;;;;;5.82;2.67;;;22.50;53.90;;;;;;4927566;29;20900;-69
2021/09/06 04:37:07;;;;;;;3.43;2.80;;;22.50;53.80;;;;;;4927702;29;20552;-66
2021/09/06 04:39:32;;;;;;;3.47;2.75;;;22.50;53.80;;;;;;4927696;29;20562;-71
2021/09/06 04:41:58;;;;;;;3.90;2.85;;;22.60;53.90;;;;;;4927378;29;20534;-73
2021/09/06 04:44:24;;;;;;;3.42;2.72;;;22.60;53.70;;;;;;4927187;29;21356;-72
2021/09/06 04:46:49;;;;;;;3.77;2.70;;;22.50;53.60;;;;;;4927345;29;20466;-73
2021/09/06 04:49:15;;;;;;;3.90;2.72;;;22.50;53.40;;;;;;4927445;29;20873;-66
2021/09/06 04:51:41;;;;;;;3.67;2.57;;;22.50;53.60;;;;;;4927490;29;20396;-70
2021/09/06 04:54:06;;;;;;;3.40;2.80;;;22.50;53.60;;;;;;4927297;29;20432;-73
2021/09/06 04:56:32;;;;;;;3.60;2.80;;;22.50;53.50;;;;;;4926977;29;20392;-74
2021/09/06 04:58:57;;;;;;;3.65;3.13;;;22.50;53.50;;;;;;4926978;29;20551;-69
2021/09/06 05:01:23;;;;;;;3.67;2.87;;;22.50;53.70;;;;;;4926274;29;20488;-73
2021/09/06 05:03:49;;;;;;;3.65;2.70;;;22.50;53.50;;;;;;4927156;29;20466;-73
2021/09/06 05:06:14;;;;;;;3.58;3.08;;;22.50;53.60;;;;;;4927448;29;20459;-68
2021/09/06 05:08:40;;;;;;;3.57;2.73;;;22.50;53.50;;;;;;4926665;29;20438;-73
2021/09/06 05:11:06;;;;;;;4.15;2.90;;;22.50;53.50;;;;;;4927335;29;20479;-72
2021/09/06 05:13:31;;;;;;;3.97;2.93;;;22.40;53.50;;;;;;4926979;29;20467;-72
2021/09/06 05:15:57;;;;;;;3.83;2.85;;;22.50;53.70;;;;;;4927274;29;20801;-72
2021/09/06 05:18:23;;;;;;;3.85;3.05;;;22.40;53.60;;;;;;4926361;29;20895;-71
2021/09/06 05:20:50;;;;;;;3.80;2.70;;;22.50;53.70;;;;;;4926909;29;20403;-72
2021/09/06 05:23:16;;;;;;;3.67;3.05;;;22.40;53.60;;;;;;4927113;29;20495;-73
2021/09/06 05:25:42;;;;;;;3.90;2.72;;;22.40;53.70;;;;;;4926604;29;20403;-73
2021/09/06 05:28:07;;;;;;;4.40;3.00;;;22.40;53.70;;;;;;4926456;29;20399;-67
2021/09/06 05:30:34;;;;;;;3.60;2.93;;;22.40;53.70;;;;;;4926085;29;20388;-72
2021/09/06 05:33:00;;;;;;;3.55;2.72;;;22.40;53.70;;;;;;4926559;29;20888;-69
2021/09/06 05:35:26;;;;;;;3.60;3.00;;;22.40;53.80;;;;;;4926774;29;20407;-72
2021/09/06 05:37:52;;;;;;;3.80;2.90;;;22.40;53.80;;;;;;4926465;29;20406;-70
2021/09/06 05:40:18;;;;;;;4.07;2.70;;;22.40;53.80;;;;;;4926783;29;20403;-72
2021/09/06 05:42:43;;;;;;;3.20;2.80;;;22.40;54.00;;;;;;4925988;29;20766;-72
2021/09/06 05:45:10;;;;;;;3.85;2.97;;;22.40;53.90;;;;;;4926453;29;20794;-73
2021/09/06 05:47:35;;;;;;;3.67;2.97;;;22.40;53.90;;;;;;4926429;29;20494;-73
2021/09/06 05:50:01;;;;;;;3.50;2.77;;;22.40;53.90;;;;;;4926669;29;20417;-72
2021/09/06 05:52:26;;;;;;;3.22;2.83;;;22.40;54.00;;;;;;4925770;29;20843;-71
2021/09/06 05:54:52;;;;;;;3.50;2.93;;;22.40;54.00;;;;;;4926215;29;20415;-67
2021/09/06 05:57:18;;;;;;;3.28;2.90;;;22.40;54.00;;;;;;4926107;29;20396;-70
2021/09/06 05:59:43;;;;;;;3.47;2.83;;;22.30;54.00;;;;;;4926031;29;20412;-73
2021/09/06 06:02:09;;;;;;;4.22;3.10;;;22.40;54.10;;;;;;4926175;29;20403;-73
2021/09/06 06:04:35;;;;;;;3.63;2.90;;;22.40;54.10;;;;;;4925333;29;20409;-69
2021/09/06 06:07:00;;;;;;;3.78;2.95;;;22.40;54.00;;;;;;4926166;29;20399;-73
2021/09/06 06:09:26;;;;;;;3.53;3.00;;;22.40;54.10;;;;;;4940542;29;20797;-72
2021/09/06 06:11:52;;;;;;;3.60;3.03;;;22.40;54.10;;;;;;4926159;29;20399;-68
2021/09/06 06:14:17;;;;;;;3.78;2.90;;;22.40;54.20;;;;;;4925593;29;20435;-73
2021/09/06 06:16:43;;;;;;;3.67;3.10;;;22.40;54.20;;;;;;4925310;29;20451;-72
2021/09/06 06:19:08;;;;;;;3.45;3.03;;;22.40;54.20;;;;;;4925821;29;20395;-69
2021/09/06 06:21:34;;;;;;;4.10;3.23;;;22.40;54.20;;;;;;4925783;29;20398;-69
2021/09/06 06:24:01;;;;;;;3.90;2.97;;;22.40;54.30;;;;;;4925756;29;20451;-68
2021/09/06 06:26:27;;;;;;;3.42;2.83;;;22.40;54.30;;;;;;4925212;29;20892;-67
2021/09/06 06:28:53;;;;;;;3.70;2.90;;;22.40;54.30;;;;;;4925865;29;20474;-73
2021/09/06 06:31:18;;;;;;;3.80;3.00;;;22.40;54.40;;;;;;4925473;29;20404;-72
2021/09/06 06:33:44;;;;;;;3.97;2.90;;;22.40;54.40;;;;;;4925622;29;20506;-68
2021/09/06 06:36:10;;;;;;;3.55;2.80;;;22.30;54.40;;;;;;4925587;29;20399;-73
2021/09/06 06:38:36;;;;;;;4.07;3.10;;;22.30;54.40;;;;;;4925308;29;20415;-73
2021/09/06 06:41:03;;;;;;;3.73;2.90;;;22.40;54.50;;;;;;4925560;29;20398;-67
2021/09/06 06:43:29;;;;;;;3.83;3.03;;;22.40;54.40;;;;;;4925281;29;20412;-72
2021/09/06 06:45:56;;;;;;;4.05;2.80;;;22.40;54.50;;;;;;4925337;29;20519;-74
2021/09/06 06:48:22;;;;;;;4.00;3.08;;;22.40;54.50;;;;;;4925223;29;20403;-68
2021/09/06 06:50:47;;;;;;;3.57;3.03;;;22.40;54.50;;;;;;4924929;29;20391;-71
2021/09/06 06:53:13;;;;;;;3.58;2.90;;;22.40;54.50;;;;;;4925343;29;20776;-69
2021/09/06 06:55:39;;;;;;;3.70;3.17;;;22.30;54.50;;;;;;4925394;29;20434;-65
2021/09/06 06:58:04;;;;;;;3.20;2.78;;;22.40;54.60;;;;;;4925385;29;20414;-72
2021/09/06 07:00:30;;;;;;;3.45;2.92;;;22.40;54.60;;;;;;4924948;29;20418;-73
2021/09/06 07:02:56;;;;;;;3.75;2.90;;;22.40;54.60;;;;;;4925675;29;20737;-73
2021/09/06 07:05:21;;;;;;;3.10;2.60;;;22.40;54.70;;;;;;4925177;29;20494;-70
2021/09/06 07:07:47;;;;;;;4.37;3.00;;;22.40;54.70;;;;;;4925723;29;20796;-73
2021/09/06 07:10:13;;;;;;;4.20;3.22;;;22.40;54.70;;;;;;4937189;29;20408;-73
2021/09/06 07:12:39;;;;;;;3.57;2.90;;;22.40;54.90;;;;;;4924927;29;20426;-72
2021/09/06 07:15:07;;;;;;;4.03;3.30;;;22.40;54.80;;;;;;4925254;29;20404;-73
2021/09/06 07:17:33;;;;;;;3.75;3.10;;;22.40;54.80;;;;;;4925090;29;20451;-73
2021/09/06 07:19:59;;;;;;;4.03;3.25;;;22.40;54.80;;;;;;4925530;29;20442;-74
2021/09/06 07:22:25;;;;;;;3.83;3.00;;;22.40;54.80;;;;;;4925188;29;20983;-73
2021/09/06 07:24:51;;;;;;;3.60;2.90;;;22.40;54.90;;;;;;4926380;29;20494;-70
2021/09/06 07:27:16;;;;;;;3.85;3.13;;;22.40;54.90;;;;;;4928929;29;20431;-72
2021/09/06 07:29:42;;;;;;;3.72;3.20;;;22.40;54.90;;;;;;4929146;29;20462;-73
2021/09/06 07:32:09;;;;;;;3.90;3.23;;;22.40;55.00;;;;;;4928919;29;20487;-73
2021/09/06 07:34:35;;;;;;;3.58;3.05;;;22.50;54.90;;;;;;4927920;29;20452;-65
2021/09/06 07:37:06;;;;;;;4.07;3.10;;;22.50;55.00;;;;;;4928931;29;20395;-68
2021/09/06 07:39:33;;;;;;;4.13;3.05;;;22.50;55.30;;;;;;4928850;29;20403;-72
2021/09/06 07:41:59;;;;;;;3.85;3.10;;;22.50;55.00;;;;;;4928555;29;20391;-72
2021/09/06 07:44:25;;;;;;;4.28;3.50;;;22.40;54.90;;;;;;4928358;29;20900;-68
2021/09/06 07:46:52;;;;;;;3.78;3.25;;;22.50;55.00;;;;;;4928139;29;20404;-74
2021/09/06 07:49:18;;;;;;;3.92;3.17;;;22.50;55.00;;;;;;4928299;29;20793;-70
2021/09/06 07:51:51;;;;;;;3.90;3.35;;;22.50;55.00;;;;;;4928536;29;20399;-70
2021/09/06 07:54:17;;;;;;;3.75;3.20;;;22.50;55.00;;;;;;4928369;29;20431;-73
2021/09/06 07:56:46;;;;;;;5.07;3.42;;;22.50;55.00;;;;;;4927913;29;20405;-70
2021/09/06 07:59:11;;;;;;;4.18;3.25;;;22.50;55.00;;;;;;4928221;29;20404;-73
2021/09/06 08:01:39;;;;;;;3.60;2.90;;;22.50;55.00;;;;;;4927662;29;20388;-74
2021/09/06 08:04:05;;;;;;;4.45;3.45;;;22.50;55.00;;;;;;4928126;29;21422;-66
2021/09/06 08:06:31;;;;;;;3.53;3.13;;;22.50;55.00;;;;;;4927810;29;21065;-71
2021/09/06 08:08:57;;;;;;;4.40;3.23;;;22.50;55.00;;;;;;4928108;29;20820;-74
2021/09/06 08:11:23;;;;;;;4.43;3.10;;;22.50;55.00;;;;;;4928240;29;20391;-73
2021/09/06 08:13:48;;;;;;;4.72;3.40;;;22.50;55.10;;;;;;4927746;29;20427;-74
2021/09/06 08:16:14;;;;;;;4.70;3.25;;;22.60;55.00;;;;;;4927813;29;20406;-72
2021/09/06 08:18:41;;;;;;;3.73;3.00;;;22.50;55.00;;;;;;4927296;29;20430;-69
2021/09/06 08:21:07;;;;;;;4.20;3.13;;;22.50;55.00;;;;;;4926625;29;20985;-67
2021/09/06 08:23:33;;;;;;;3.97;3.20;;;22.50;55.00;;;;;;4928177;29;20411;-70
2021/09/06 08:25:58;;;;;;;4.10;3.55;;;22.50;55.00;;;;;;4928100;29;20419;-68
2021/09/06 08:28:24;;;;;;;4.35;3.25;;;22.60;55.10;;;;;;4927860;29;20888;-74
2021/09/06 08:30:50;;;;;;;3.80;3.27;;;22.60;55.10;;;;;;4926402;29;20758;-68
2021/09/06 08:33:16;;;;;;;6.03;3.50;;;22.60;55.10;;;;;;4927487;29;20427;-71
2021/09/06 08:35:42;;;;;;;5.43;3.22;;;22.60;55.10;;;;;;4926934;29;20407;-68
2021/09/06 08:38:09;;;;;;;4.88;3.42;;;22.60;55.30;;;;;;4940210;28;20892;-67
2021/09/06 08:40:35;;;;;;;6.13;3.47;;;22.60;55.40;;;;;;4927469;29;20403;-73
2021/09/06 08:43:04;;;;;;;4.20;3.55;;;22.60;55.30;;;;;;4926675;29;20399;-72
2021/09/06 08:45:32;;;;;;;4.90;3.40;;;22.60;55.30;;;;;;4926995;29;20405;-73
2021/09/06 08:47:58;;;;;;;4.80;3.40;;;22.60;55.30;;;;;;4926141;29;20408;-71
2021/09/06 08:50:24;;;;;;;4.20;3.10;;;22.60;55.30;;;;;;4926274;29;20540;-69
2021/09/06 08:52:50;;;;;;;4.25;3.40;;;22.60;55.30;;;;;;4939710;28;20657;-72
2021/09/06 08:55:16;;;;;;;4.23;3.30;;;22.60;55.40;;;;;;4925838;29;20935;-74
2021/09/06 08:57:42;;;;;;;4.90;3.40;;;22.60;55.30;;;;;;4926501;29;20446;-69
2021/09/06 09:00:10;;;;;;;4.93;3.25;;;22.70;55.40;;;;;;4927342;29;20411;-74
2021/09/06 09:02:37;;;;;;;4.13;3.42;;;22.70;55.40;;;;;;4925503;29;20460;-67
2021/09/06 09:05:09;;;;;;;5.93;3.40;;;22.70;55.40;;;;;;4926760;29;20415;-71
2021/09/06 09:07:37;;;;;;;4.10;3.25;;;22.70;55.30;;;;;;4927236;29;20427;-73
2021/09/06 09:10:08;;;;;;;3.87;3.20;;;22.70;55.40;;;;;;4926552;29;20414;-72
2021/09/06 09:12:34;;;;;;;3.88;3.30;;;22.70;55.40;;;;;;4926676;29;20403;-73
2021/09/06 09:15:01;;;;;;;3.88;3.33;;;22.60;55.30;;;;;;4925870;29;20402;-72
2021/09/06 09:17:27;;;;;;;4.00;3.28;;;22.70;55.50;;;;;;4926265;29;20419;-74
2021/09/06 09:19:54;;;;;;;4.60;3.72;;;22.70;55.40;;;;;;4926437;29;20403;-70
2021/09/06 09:22:30;;;;;;;3.60;3.00;;;22.70;55.40;;;;;;4926609;29;20439;-72
2021/09/06 09:25:00;;;;;;;3.97;3.15;;;22.70;55.40;;;;;;4925329;29;20894;-74
2021/09/06 09:27:45;;;;;;;5.28;3.60;;;22.70;55.40;;;;;;4926298;29;20907;-71
2021/09/06 09:30:22;;;;;;;4.15;3.47;;;22.70;55.50;;;;;;4925896;29;20927;-72
2021/09/06 09:32:48;;;;;;;4.27;3.13;;;22.70;55.40;;;;;;4925830;29;20483;-71
2021/09/06 09:35:14;;;;;;;4.03;3.38;;;22.70;55.50;;;;;;4925980;29;20408;-72
2021/09/06 09:37:40;;;;;;;4.13;3.40;;;22.70;55.50;;;;;;4925686;29;20742;-71
2021/09/06 09:40:10;;;;;;;4.45;3.70;;;22.70;55.60;;;;;;4925386;29;20404;-73
2021/09/06 09:42:50;;;;;;;4.80;3.60;;;22.70;55.80;;;;;;4926208;29;20392;-72
2021/09/06 09:45:23;;;;;;;4.22;3.60;;;22.70;55.50;;;;;;4925774;29;20395;-73
2021/09/06 09:47:54;;;;;;;4.17;3.43;;;22.70;55.70;;;;;;4925674;29;21131;-71
2021/09/06 09:50:22;;;;;;;3.90;3.50;;;22.70;55.50;;;;;;4925564;29;20488;-68
2021/09/06 09:52:49;;;;;;;4.83;3.40;;;22.70;55.90;;;;;;4925569;29;20412;-72
2021/09/06 09:55:16;;;;;;;5.45;3.42;;;22.70;55.50;;;;;;4926681;29;20434;-73
2021/09/06 09:57:42;;;;;;;4.57;3.80;;;22.80;55.60;;;;;;4925691;29;20407;-72
2021/09/06 10:00:09;;;;;;;3.87;3.27;;;22.80;55.60;;;;;;4926153;29;20408;-72
2021/09/06 10:02:35;;;;;;;3.85;3.40;;;22.70;55.50;;;;;;4925396;29;20403;-70
2021/09/06 10:05:07;;;;;;;5.03;3.47;;;22.80;55.60;;;;;;4925635;29;20403;-72
2021/09/06 10:07:37;;;;;;;4.28;3.50;;;22.80;55.60;;;;;;4925427;29;20398;-72
2021/09/06 10:10:18;;;;;;;4.43;3.53;;;22.80;55.50;;;;;;4925674;29;20487;-74
2021/09/06 10:12:49;;;;;;;4.53;3.38;;;22.70;55.50;;;;;;4924611;29;20463;-71
2021/09/06 10:15:16;;;;;;;4.32;3.50;;;22.80;55.60;;;;;;4926145;29;20926;-73
2021/09/06 10:17:48;;;;;;;3.72;3.40;;;22.80;55.50;;;;;;4924464;29;20481;-72
2021/09/06 10:20:17;;;;;;;4.15;3.30;;;22.80;55.60;;;;;;4924860;29;20972;-74
2021/09/06 10:22:46;;;;;;;3.83;3.40;;;22.80;55.60;;;;;;4924686;29;20483;-73
2021/09/06 10:25:18;;;;;;;4.17;3.30;;;22.80;55.50;;;;;;4925859;29;20431;-73
2021/09/06 10:27:52;;;;;;;3.97;3.45;;;22.80;55.60;;;;;;4924848;29;20400;-71
2021/09/06 10:30:19;;;;;;;4.80;3.65;;;22.80;55.60;;;;;;4924963;29;20412;-71
2021/09/06 10:32:50;;;;;;;3.88;3.40;;;22.80;55.70;;;;;;4923557;29;20466;-73
2021/09/06 10:35:19;;;;;;;3.88;3.20;;;22.80;55.70;;;;;;4924937;29;20832;-72
2021/09/06 10:37:47;;;;;;;3.88;3.20;;;22.80;55.70;;;;;;4923737;29;20688;-66
2021/09/06 10:40:24;;;;;;;3.90;3.13;;;22.80;55.60;;;;;;4924648;29;20405;-72
2021/09/06 10:42:50;;;;;;;3.97;3.40;;;22.80;55.70;;;;;;4922951;29;20419;-74
2021/09/06 10:45:16;;;;;;;4.03;3.40;;;22.80;55.70;;;;;;4925317;29;20498;-74
2021/09/06 10:47:43;;;;;;;3.95;3.25;;;22.80;55.60;;;;;;4924390;29;20510;-74
2021/09/06 10:50:19;;;;;;;4.50;3.40;;;22.80;55.60;;;;;;4925417;29;20427;-69
2021/09/06 10:52:47;;;;;;;4.75;3.40;;;22.80;55.60;;;;;;4924290;29;20407;-72
2021/09/06 10:55:15;;;;;;;4.35;3.55;;;22.80;55.50;;;;;;4908035;29;20415;-74
2021/09/06 10:57:42;;;;;;;3.95;3.40;;;22.80;55.50;;;;;;4924793;29;20773;-74
2021/09/06 11:00:14;;;;;;;3.30;3.00;;;22.80;55.50;;;;;;4924319;29;20419;-69
2021/09/06 11:02:42;;;;;;;3.90;3.25;;;22.90;55.50;;;;;;4924637;29;20403;-67
2021/09/06 11:05:22;;;;;;;3.90;3.38;;;22.90;55.50;;;;;;4924491;29;20396;-69
2021/09/06 11:07:48;;;;;;;3.75;3.35;;;22.90;55.50;;;;;;4924658;29;20388;-69
2021/09/06 11:10:19;;;;;;;3.85;3.42;;;22.90;55.50;;;;;;4924977;29;20478;-67
2021/09/06 11:12:57;;;;;;;4.28;3.35;;;22.90;56.00;;;;;;4922846;29;20407;-70
2021/09/06 11:15:28;;;;;;;4.32;3.58;;;22.90;55.40;;;;;;4924912;29;20896;-73
2021/09/06 11:17:56;;;;;;;4.53;3.63;;;22.90;55.40;;;;;;4923905;29;20427;-73
2021/09/06 11:20:22;;;;;;;4.60;3.70;;;22.90;55.50;;;;;;4924853;29;20486;-72
2021/09/06 11:22:47;;;;;;;4.10;3.50;;;22.90;55.50;;;;;;4923954;29;20494;-67
2021/09/06 11:25:23;;;;;;;4.20;3.60;;;22.90;55.50;;;;;;4924655;29;20434;-71
2021/09/06 11:27:50;;;;;;;4.57;3.80;;;22.90;55.60;;;;;;4925034;29;20438;-74
2021/09/06 11:30:26;;;;;;;3.58;3.20;;;22.90;55.50;;;;;;4924736;29;20395;-67
2021/09/06 11:32:52;;;;;;;4.43;3.53;;;22.90;55.60;;;;;;4924274;29;20482;-73
2021/09/06 11:35:19;;;;;;;4.10;3.50;;;23.00;55.60;;;;;;4924369;29;20408;-67
2021/09/06 11:37:46;;;;;;;4.07;3.53;;;23.00;55.50;;;;;;4925023;29;20415;-68
2021/09/06 11:40:13;;;;;;;4.55;3.88;;;23.00;55.60;;;;;;4924416;29;20892;-73
2021/09/06 11:42:39;;;;;;;4.40;3.75;;;23.00;55.60;;;;;;4924173;29;20475;-68
2021/09/06 11:45:06;;;;;;;4.38;3.70;;;23.00;55.60;;;;;;4923829;29;21428;-66
2021/09/06 11:47:35;;;;;;;4.35;3.80;;;23.00;55.60;;;;;;4923817;29;20402;-72
2021/09/06 11:50:02;;;;;;;4.27;3.70;;;23.00;55.60;;;;;;4923470;29;20412;-66
2021/09/06 11:52:29;;;;;;;4.50;3.92;;;23.00;55.50;;;;;;4923850;29;20406;-69
2021/09/06 11:54:54;;;;;;;4.68;3.80;;;23.00;55.60;;;;;;4924103;29;20459;-73
2021/09/06 11:57:30;;;;;;;4.43;3.72;;;23.00;55.60;;;;;;4924906;29;20582;-73
2021/09/06 11:59:56;;;;;;;5.07;4.00;;;23.00;55.60;;;;;;4924710;29;20487;-70
2021/09/06 12:02:25;;;;;;;4.75;3.90;;;23.10;56.20;;;;;;4924547;29;20431;-67
2021/09/06 12:05:15;;;;;;;4.22;3.80;;;23.10;55.60;;;;;;4938786;28;20439;-67
2021/09/06 12:07:52;;;;;;;4.20;3.67;;;23.10;55.60;;;;;;4924052;29;20430;-66
2021/09/06 12:10:25;;;;;;;4.45;3.95;;;23.10;55.70;;;;;;4924767;29;20404;-73
2021/09/06 12:13:02;;;;;;;4.40;4.00;;;23.10;55.60;;;;;;4925633;29;20392;-72
2021/09/06 12:15:33;;;;;;;4.78;3.90;;;23.10;55.60;;;;;;4927856;29;20411;-73
2021/09/06 12:18:13;;;;;;;4.85;4.30;;;23.10;55.60;;;;;;4927548;29;20415;-67
2021/09/06 12:20:41;;;;;;;4.55;4.00;;;23.10;56.20;;;;;;4927254;29;20947;-67
2021/09/06 12:23:10;;;;;;;4.15;3.70;;;23.20;55.70;;;;;;4926638;29;20403;-66
2021/09/06 12:25:38;;;;;;;5.03;4.25;;;23.10;55.60;;;;;;4942240;28;20411;-66
2021/09/06 12:28:13;;;;;;;4.22;3.83;;;23.20;55.60;;;;;;4927299;29;20399;-66
2021/09/06 12:30:54;;;;;;;4.32;3.92;;;23.20;55.70;;;;;;4927297;29;20403;-67
2021/09/06 12:33:20;;;;;;;4.90;3.90;;;23.20;55.70;;;;;;4925691;29;20837;-66
2021/09/06 12:35:46;;;;;;;4.25;3.85;;;23.20;55.70;;;;;;4927576;29;20470;-66
2021/09/06 12:38:12;;;;;;;5.05;3.95;;;23.20;55.70;;;;;;4927198;29;20893;-66
2021/09/06 12:40:38;;;;;;;4.80;4.30;;;23.20;55.70;;;;;;4926844;29;20394;-70
2021/09/06 12:43:04;;;;;;;4.23;3.83;;;23.20;55.70;;;;;;4926572;29;20804;-72
2021/09/06 12:45:30;;;;;;;4.53;4.10;;;23.20;55.70;;;;;;4926728;29;20395;-67
2021/09/06 12:47:57;;;;;;;4.40;4.00;;;23.20;55.70;;;;;;4926689;29;20442;-72